sensor_id;sensor_type;location;lat;lon;timestamp;P1;durP1;ratioP1;P2;durP2;ratioP2
5135;SDS011;2586;48.710;9.202;2023-02-10T00:01:08;49.63;;;22.90;;
5135;SDS011;2586;48.710;9.202;2023-02-10T00:03:35;48.53;;;20.83;;
5135;SDS011;2586;48.710;9.202;2023-02-10T00:06:01;48.00;;;22.57;;
5135;SDS011;2586;48.710;9.202;2023-02-10T00:08:27;41.30;;;20.70;;
5135;SDS011;2586;48.710;9.202;2023-02-10T00:10:57;46.83;;;20.80;;
5135;SDS011;2586;48.710;9.202;2023-02-10T00:13:23;38.57;;;19.80;;
5135;SDS011;2586;48.710;9.202;2023-02-10T00:15:50;50.77;;;22.53;;
5135;SDS011;2586;48.710;9.202;2023-02-10T00:18:16;65.40;;;21.07;;
5135;SDS011;2586;48.710;9.202;2023-02-10T00:20:41;44.03;;;20.50;;
5135;SDS011;2586;48.710;9.202;2023-02-10T00:23:07;40.67;;;20.10;;
5135;SDS011;2586;48.710;9.202;2023-02-10T00:25:34;52.10;;;23.10;;
5135;SDS011;2586;48.710;9.202;2023-02-10T00:28:01;41.17;;;20.20;;
5135;SDS011;2586;48.710;9.202;2023-02-10T00:30:26;46.00;;;21.67;;
5135;SDS011;2586;48.710;9.202;2023-02-10T00:32:52;50.17;;;21.00;;
5135;SDS011;2586;48.710;9.202;2023-02-10T00:35:18;64.60;;;24.60;;
5135;SDS011;2586;48.710;9.202;2023-02-10T00:37:43;44.37;;;22.20;;
5135;SDS011;2586;48.710;9.202;2023-02-10T00:40:09;47.43;;;21.17;;
5135;SDS011;2586;48.710;9.202;2023-02-10T00:42:35;54.77;;;24.60;;
5135;SDS011;2586;48.710;9.202;2023-02-10T00:45:00;48.90;;;20.57;;
5135;SDS011;2586;48.710;9.202;2023-02-10T00:47:26;61.80;;;22.37;;
5135;SDS011;2586;48.710;9.202;2023-02-10T00:49:52;51.13;;;22.53;;
5135;SDS011;2586;48.710;9.202;2023-02-10T00:52:18;45.07;;;21.63;;
5135;SDS011;2586;48.710;9.202;2023-02-10T00:54:43;39.80;;;20.37;;
5135;SDS011;2586;48.710;9.202;2023-02-10T00:57:09;46.63;;;21.60;;
5135;SDS011;2586;48.710;9.202;2023-02-10T00:59:34;47.33;;;22.17;;
5135;SDS011;2586;48.710;9.202;2023-02-10T01:02:00;46.33;;;20.63;;
5135;SDS011;2586;48.710;9.202;2023-02-10T01:04:26;50.80;;;22.03;;
5135;SDS011;2586;48.710;9.202;2023-02-10T01:06:51;50.10;;;22.73;;
5135;SDS011;2586;48.710;9.202;2023-02-10T01:09:17;41.30;;;18.90;;
5135;SDS011;2586;48.710;9.202;2023-02-10T01:11:43;47.87;;;20.70;;
5135;SDS011;2586;48.710;9.202;2023-02-10T01:14:08;44.53;;;20.70;;
5135;SDS011;2586;48.710;9.202;2023-02-10T01:16:34;38.23;;;19.20;;
5135;SDS011;2586;48.710;9.202;2023-02-10T01:19:01;54.97;;;22.83;;
5135;SDS011;2586;48.710;9.202;2023-02-10T01:21:26;53.73;;;23.00;;
5135;SDS011;2586;48.710;9.202;2023-02-10T01:23:52;52.53;;;19.90;;
5135;SDS011;2586;48.710;9.202;2023-02-10T01:26:18;50.60;;;21.80;;
5135;SDS011;2586;48.710;9.202;2023-02-10T01:28:44;50.63;;;21.60;;
5135;SDS011;2586;48.710;9.202;2023-02-10T01:31:27;45.27;;;21.60;;
5135;SDS011;2586;48.710;9.202;2023-02-10T01:33:54;47.37;;;20.03;;
5135;SDS011;2586;48.710;9.202;2023-02-10T01:36:21;44.93;;;20.47;;
5135;SDS011;2586;48.710;9.202;2023-02-10T01:38:48;47.17;;;21.47;;
5135;SDS011;2586;48.710;9.202;2023-02-10T01:41:15;43.90;;;20.50;;
5135;SDS011;2586;48.710;9.202;2023-02-10T01:43:57;40.70;;;19.33;;
5135;SDS011;2586;48.710;9.202;2023-02-10T01:46:23;52.67;;;20.43;;
5135;SDS011;2586;48.710;9.202;2023-02-10T01:48:49;44.27;;;20.20;;
5135;SDS011;2586;48.710;9.202;2023-02-10T01:51:16;48.00;;;21.00;;
5135;SDS011;2586;48.710;9.202;2023-02-10T01:53:47;47.30;;;20.20;;
5135;SDS011;2586;48.710;9.202;2023-02-10T01:56:13;50.50;;;22.47;;
5135;SDS011;2586;48.710;9.202;2023-02-10T01:58:40;42.43;;;21.40;;
5135;SDS011;2586;48.710;9.202;2023-02-10T02:01:08;42.30;;;20.70;;
5135;SDS011;2586;48.710;9.202;2023-02-10T02:03:34;46.13;;;22.70;;
5135;SDS011;2586;48.710;9.202;2023-02-10T02:06:00;52.77;;;21.60;;
5135;SDS011;2586;48.710;9.202;2023-02-10T02:08:29;44.60;;;20.90;;
5135;SDS011;2586;48.710;9.202;2023-02-10T02:19:50;49.87;;;22.53;;
5135;SDS011;2586;48.710;9.202;2023-02-10T02:23:05;46.87;;;22.20;;
5135;SDS011;2586;48.710;9.202;2023-02-10T02:25:44;45.80;;;23.17;;
5135;SDS011;2586;48.710;9.202;2023-02-10T02:37:19;62.30;;;23.97;;
5135;SDS011;2586;48.710;9.202;2023-02-10T02:39:48;46.17;;;21.70;;
5135;SDS011;2586;48.710;9.202;2023-02-10T02:42:20;54.60;;;22.87;;
5135;SDS011;2586;48.710;9.202;2023-02-10T02:45:07;45.27;;;22.87;;
5135;SDS011;2586;48.710;9.202;2023-02-10T02:50:33;63.53;;;20.30;;
5135;SDS011;2586;48.710;9.202;2023-02-10T02:53:09;50.60;;;20.97;;
5135;SDS011;2586;48.710;9.202;2023-02-10T03:00:58;45.73;;;23.53;;
5135;SDS011;2586;48.710;9.202;2023-02-10T03:03:31;42.83;;;22.17;;
5135;SDS011;2586;48.710;9.202;2023-02-10T03:06:01;49.57;;;21.37;;
5135;SDS011;2586;48.710;9.202;2023-02-10T03:08:28;53.97;;;21.97;;
5135;SDS011;2586;48.710;9.202;2023-02-10T03:10:56;60.33;;;21.60;;
5135;SDS011;2586;48.710;9.202;2023-02-10T03:13:21;42.23;;;20.87;;
5135;SDS011;2586;48.710;9.202;2023-02-10T03:15:47;43.63;;;21.23;;
5135;SDS011;2586;48.710;9.202;2023-02-10T03:18:13;42.03;;;20.00;;
5135;SDS011;2586;48.710;9.202;2023-02-10T03:20:39;45.03;;;20.00;;
5135;SDS011;2586;48.710;9.202;2023-02-10T03:23:05;41.30;;;19.50;;
5135;SDS011;2586;48.710;9.202;2023-02-10T03:25:31;47.23;;;21.27;;
5135;SDS011;2586;48.710;9.202;2023-02-10T03:27:57;45.60;;;19.83;;
5135;SDS011;2586;48.710;9.202;2023-02-10T03:30:22;43.87;;;20.90;;
5135;SDS011;2586;48.710;9.202;2023-02-10T03:32:48;51.60;;;21.43;;
5135;SDS011;2586;48.710;9.202;2023-02-10T03:35:14;46.37;;;19.50;;
5135;SDS011;2586;48.710;9.202;2023-02-10T03:37:40;53.47;;;21.50;;
5135;SDS011;2586;48.710;9.202;2023-02-10T03:40:05;43.07;;;18.67;;
5135;SDS011;2586;48.710;9.202;2023-02-10T03:42:31;42.97;;;19.63;;
5135;SDS011;2586;48.710;9.202;2023-02-10T03:44:57;50.27;;;22.30;;
5135;SDS011;2586;48.710;9.202;2023-02-10T03:47:22;50.40;;;20.17;;
5135;SDS011;2586;48.710;9.202;2023-02-10T03:49:48;43.63;;;21.10;;
5135;SDS011;2586;48.710;9.202;2023-02-10T03:52:14;38.17;;;18.70;;
5135;SDS011;2586;48.710;9.202;2023-02-10T03:54:39;45.30;;;20.20;;
5135;SDS011;2586;48.710;9.202;2023-02-10T03:57:05;42.53;;;20.20;;
5135;SDS011;2586;48.710;9.202;2023-02-10T03:59:31;49.20;;;20.80;;
5135;SDS011;2586;48.710;9.202;2023-02-10T04:01:57;44.00;;;20.67;;
5135;SDS011;2586;48.710;9.202;2023-02-10T04:04:22;41.13;;;18.87;;
5135;SDS011;2586;48.710;9.202;2023-02-10T04:06:48;39.10;;;21.27;;
5135;SDS011;2586;48.710;9.202;2023-02-10T04:09:14;40.90;;;19.37;;
5135;SDS011;2586;48.710;9.202;2023-02-10T04:11:39;42.10;;;19.40;;
5135;SDS011;2586;48.710;9.202;2023-02-10T04:14:05;42.83;;;19.60;;
5135;SDS011;2586;48.710;9.202;2023-02-10T04:16:30;55.00;;;19.97;;
5135;SDS011;2586;48.710;9.202;2023-02-10T04:18:57;34.93;;;19.33;;
5135;SDS011;2586;48.710;9.202;2023-02-10T04:21:22;42.10;;;19.50;;
5135;SDS011;2586;48.710;9.202;2023-02-10T04:23:49;50.40;;;21.70;;
5135;SDS011;2586;48.710;9.202;2023-02-10T04:26:15;39.80;;;18.10;;
5135;SDS011;2586;48.710;9.202;2023-02-10T04:28:40;38.17;;;18.57;;
5135;SDS011;2586;48.710;9.202;2023-02-10T04:31:06;42.67;;;20.63;;
5135;SDS011;2586;48.710;9.202;2023-02-10T04:33:32;37.70;;;19.30;;
5135;SDS011;2586;48.710;9.202;2023-02-10T04:35:59;39.73;;;20.43;;
5135;SDS011;2586;48.710;9.202;2023-02-10T04:38:27;53.77;;;21.20;;
5135;SDS011;2586;48.710;9.202;2023-02-10T04:40:53;49.33;;;21.70;;
5135;SDS011;2586;48.710;9.202;2023-02-10T04:43:18;51.53;;;20.30;;
5135;SDS011;2586;48.710;9.202;2023-02-10T04:45:44;50.10;;;22.60;;
5135;SDS011;2586;48.710;9.202;2023-02-10T04:48:10;47.40;;;22.43;;
5135;SDS011;2586;48.710;9.202;2023-02-10T04:50:36;45.30;;;22.87;;
5135;SDS011;2586;48.710;9.202;2023-02-10T04:53:02;56.43;;;22.90;;
5135;SDS011;2586;48.710;9.202;2023-02-10T04:55:28;56.80;;;23.10;;
5135;SDS011;2586;48.710;9.202;2023-02-10T04:57:53;42.37;;;20.93;;
5135;SDS011;2586;48.710;9.202;2023-02-10T05:00:19;47.10;;;21.73;;
5135;SDS011;2586;48.710;9.202;2023-02-10T05:02:45;51.13;;;21.10;;
5135;SDS011;2586;48.710;9.202;2023-02-10T05:05:11;45.03;;;21.30;;
5135;SDS011;2586;48.710;9.202;2023-02-10T05:07:37;48.17;;;23.30;;
5135;SDS011;2586;48.710;9.202;2023-02-10T05:10:03;48.80;;;22.70;;
5135;SDS011;2586;48.710;9.202;2023-02-10T05:12:29;42.10;;;19.13;;
5135;SDS011;2586;48.710;9.202;2023-02-10T05:14:55;42.17;;;20.80;;
5135;SDS011;2586;48.710;9.202;2023-02-10T05:17:20;47.10;;;19.87;;
5135;SDS011;2586;48.710;9.202;2023-02-10T05:19:46;44.67;;;19.07;;
5135;SDS011;2586;48.710;9.202;2023-02-10T05:22:12;59.10;;;22.63;;
5135;SDS011;2586;48.710;9.202;2023-02-10T05:24:37;50.40;;;22.03;;
5135;SDS011;2586;48.710;9.202;2023-02-10T05:27:03;40.37;;;18.77;;
5135;SDS011;2586;48.710;9.202;2023-02-10T05:29:28;38.77;;;19.13;;
5135;SDS011;2586;48.710;9.202;2023-02-10T05:31:54;48.47;;;20.90;;
5135;SDS011;2586;48.710;9.202;2023-02-10T05:34:20;46.43;;;19.80;;
5135;SDS011;2586;48.710;9.202;2023-02-10T05:36:45;42.30;;;20.00;;
5135;SDS011;2586;48.710;9.202;2023-02-10T05:39:11;46.30;;;21.93;;
5135;SDS011;2586;48.710;9.202;2023-02-10T05:41:49;38.10;;;17.60;;
5135;SDS011;2586;48.710;9.202;2023-02-10T05:44:20;41.07;;;18.93;;
5135;SDS011;2586;48.710;9.202;2023-02-10T05:46:47;44.57;;;19.60;;
5135;SDS011;2586;48.710;9.202;2023-02-10T05:49:13;43.33;;;21.33;;
5135;SDS011;2586;48.710;9.202;2023-02-10T05:51:39;47.20;;;20.30;;
5135;SDS011;2586;48.710;9.202;2023-02-10T05:54:05;41.13;;;20.47;;
5135;SDS011;2586;48.710;9.202;2023-02-10T05:56:31;49.63;;;22.10;;
5135;SDS011;2586;48.710;9.202;2023-02-10T05:58:56;37.97;;;17.57;;
5135;SDS011;2586;48.710;9.202;2023-02-10T06:01:22;46.27;;;19.50;;
5135;SDS011;2586;48.710;9.202;2023-02-10T06:03:48;41.80;;;18.30;;
5135;SDS011;2586;48.710;9.202;2023-02-10T06:06:14;46.07;;;18.90;;
5135;SDS011;2586;48.710;9.202;2023-02-10T06:08:39;49.63;;;21.97;;
5135;SDS011;2586;48.710;9.202;2023-02-10T06:11:05;43.20;;;20.97;;
5135;SDS011;2586;48.710;9.202;2023-02-10T06:13:31;41.87;;;19.37;;
5135;SDS011;2586;48.710;9.202;2023-02-10T06:15:56;43.47;;;20.33;;
5135;SDS011;2586;48.710;9.202;2023-02-10T06:18:22;42.93;;;20.30;;
5135;SDS011;2586;48.710;9.202;2023-02-10T06:20:48;48.10;;;21.40;;
5135;SDS011;2586;48.710;9.202;2023-02-10T06:23:16;51.80;;;20.93;;
5135;SDS011;2586;48.710;9.202;2023-02-10T06:25:41;41.73;;;20.93;;
5135;SDS011;2586;48.710;9.202;2023-02-10T06:28:07;48.83;;;22.17;;
5135;SDS011;2586;48.710;9.202;2023-02-10T06:30:33;47.53;;;22.43;;
5135;SDS011;2586;48.710;9.202;2023-02-10T06:32:59;55.00;;;20.20;;
5135;SDS011;2586;48.710;9.202;2023-02-10T06:35:24;41.30;;;20.37;;
5135;SDS011;2586;48.710;9.202;2023-02-10T06:37:51;49.70;;;22.10;;
5135;SDS011;2586;48.710;9.202;2023-02-10T06:40:16;50.10;;;21.67;;
5135;SDS011;2586;48.710;9.202;2023-02-10T06:42:42;44.67;;;21.30;;
5135;SDS011;2586;48.710;9.202;2023-02-10T06:45:08;44.80;;;20.50;;
5135;SDS011;2586;48.710;9.202;2023-02-10T06:47:34;50.13;;;20.20;;
5135;SDS011;2586;48.710;9.202;2023-02-10T06:50:00;54.63;;;19.90;;
5135;SDS011;2586;48.710;9.202;2023-02-10T06:52:26;50.53;;;21.13;;
5135;SDS011;2586;48.710;9.202;2023-02-10T06:54:52;47.23;;;20.87;;
5135;SDS011;2586;48.710;9.202;2023-02-10T06:57:18;49.40;;;21.80;;
5135;SDS011;2586;48.710;9.202;2023-02-10T06:59:44;43.30;;;20.40;;
5135;SDS011;2586;48.710;9.202;2023-02-10T07:02:10;43.20;;;21.60;;
5135;SDS011;2586;48.710;9.202;2023-02-10T07:04:37;49.60;;;20.97;;
5135;SDS011;2586;48.710;9.202;2023-02-10T07:07:02;50.37;;;21.37;;
5135;SDS011;2586;48.710;9.202;2023-02-10T07:09:28;46.47;;;22.67;;
5135;SDS011;2586;48.710;9.202;2023-02-10T07:11:54;42.73;;;19.73;;
5135;SDS011;2586;48.710;9.202;2023-02-10T07:14:19;46.23;;;19.93;;
5135;SDS011;2586;48.710;9.202;2023-02-10T07:16:45;49.87;;;23.60;;
5135;SDS011;2586;48.710;9.202;2023-02-10T07:19:12;49.60;;;21.03;;
5135;SDS011;2586;48.710;9.202;2023-02-10T07:21:38;45.10;;;20.53;;
5135;SDS011;2586;48.710;9.202;2023-02-10T07:24:03;48.10;;;21.00;;
5135;SDS011;2586;48.710;9.202;2023-02-10T07:26:29;50.63;;;22.60;;
5135;SDS011;2586;48.710;9.202;2023-02-10T07:28:55;52.37;;;21.10;;
5135;SDS011;2586;48.710;9.202;2023-02-10T07:31:20;52.17;;;22.30;;
5135;SDS011;2586;48.710;9.202;2023-02-10T07:33:46;46.83;;;20.80;;
5135;SDS011;2586;48.710;9.202;2023-02-10T07:36:12;45.90;;;21.00;;
5135;SDS011;2586;48.710;9.202;2023-02-10T07:38:37;50.63;;;21.90;;
5135;SDS011;2586;48.710;9.202;2023-02-10T07:41:04;54.87;;;21.70;;
5135;SDS011;2586;48.710;9.202;2023-02-10T07:43:30;41.83;;;18.70;;
5135;SDS011;2586;48.710;9.202;2023-02-10T07:45:56;41.17;;;19.07;;
5135;SDS011;2586;48.710;9.202;2023-02-10T07:48:22;51.50;;;22.67;;
5135;SDS011;2586;48.710;9.202;2023-02-10T07:50:48;49.17;;;22.07;;
5135;SDS011;2586;48.710;9.202;2023-02-10T07:53:16;44.50;;;21.77;;
5135;SDS011;2586;48.710;9.202;2023-02-10T07:55:42;49.43;;;25.03;;
5135;SDS011;2586;48.710;9.202;2023-02-10T07:58:07;51.10;;;23.23;;
5135;SDS011;2586;48.710;9.202;2023-02-10T08:00:33;48.20;;;20.47;;
5135;SDS011;2586;48.710;9.202;2023-02-10T08:02:59;38.03;;;20.33;;
5135;SDS011;2586;48.710;9.202;2023-02-10T08:05:24;42.50;;;20.60;;
5135;SDS011;2586;48.710;9.202;2023-02-10T08:07:51;49.73;;;21.17;;
5135;SDS011;2586;48.710;9.202;2023-02-10T08:10:18;42.13;;;21.07;;
5135;SDS011;2586;48.710;9.202;2023-02-10T08:12:44;39.23;;;19.80;;
5135;SDS011;2586;48.710;9.202;2023-02-10T08:15:11;37.37;;;19.20;;
5135;SDS011;2586;48.710;9.202;2023-02-10T08:17:37;41.73;;;19.93;;
5135;SDS011;2586;48.710;9.202;2023-02-10T08:20:04;41.73;;;20.03;;
5135;SDS011;2586;48.710;9.202;2023-02-10T08:22:31;40.70;;;20.40;;
5135;SDS011;2586;48.710;9.202;2023-02-10T08:24:56;45.70;;;20.03;;
5135;SDS011;2586;48.710;9.202;2023-02-10T08:27:22;50.23;;;21.60;;
5135;SDS011;2586;48.710;9.202;2023-02-10T08:29:47;46.17;;;20.80;;
5135;SDS011;2586;48.710;9.202;2023-02-10T08:32:13;48.30;;;22.13;;
5135;SDS011;2586;48.710;9.202;2023-02-10T08:34:44;49.33;;;20.60;;
5135;SDS011;2586;48.710;9.202;2023-02-10T08:37:11;35.83;;;20.20;;
5135;SDS011;2586;48.710;9.202;2023-02-10T08:39:37;35.93;;;19.80;;
5135;SDS011;2586;48.710;9.202;2023-02-10T08:42:02;48.20;;;19.33;;
5135;SDS011;2586;48.710;9.202;2023-02-10T08:44:28;41.53;;;21.47;;
5135;SDS011;2586;48.710;9.202;2023-02-10T08:46:54;39.20;;;21.37;;
5135;SDS011;2586;48.710;9.202;2023-02-10T08:49:20;42.43;;;21.80;;
5135;SDS011;2586;48.710;9.202;2023-02-10T08:51:47;47.17;;;20.77;;
5135;SDS011;2586;48.710;9.202;2023-02-10T08:54:13;50.60;;;21.30;;
5135;SDS011;2586;48.710;9.202;2023-02-10T08:56:38;48.63;;;21.43;;
5135;SDS011;2586;48.710;9.202;2023-02-10T08:59:04;52.17;;;23.50;;
5135;SDS011;2586;48.710;9.202;2023-02-10T09:01:30;82.30;;;22.00;;
5135;SDS011;2586;48.710;9.202;2023-02-10T09:03:56;57.47;;;22.10;;
5135;SDS011;2586;48.710;9.202;2023-02-10T09:06:23;51.80;;;20.97;;
5135;SDS011;2586;48.710;9.202;2023-02-10T09:08:51;47.73;;;21.63;;
5135;SDS011;2586;48.710;9.202;2023-02-10T09:11:20;47.00;;;20.13;;
5135;SDS011;2586;48.710;9.202;2023-02-10T09:13:48;38.43;;;20.00;;
5135;SDS011;2586;48.710;9.202;2023-02-10T09:16:14;52.83;;;20.20;;
5135;SDS011;2586;48.710;9.202;2023-02-10T09:18:40;47.77;;;20.33;;
5135;SDS011;2586;48.710;9.202;2023-02-10T09:21:05;43.67;;;20.47;;
5135;SDS011;2586;48.710;9.202;2023-02-10T09:23:31;46.30;;;21.73;;
5135;SDS011;2586;48.710;9.202;2023-02-10T09:25:57;50.67;;;23.07;;
5135;SDS011;2586;48.710;9.202;2023-02-10T09:28:24;47.33;;;22.50;;
5135;SDS011;2586;48.710;9.202;2023-02-10T09:30:51;41.70;;;21.43;;
5135;SDS011;2586;48.710;9.202;2023-02-10T09:33:16;44.93;;;21.70;;
5135;SDS011;2586;48.710;9.202;2023-02-10T09:35:42;36.40;;;19.90;;
5135;SDS011;2586;48.710;9.202;2023-02-10T09:38:09;60.27;;;21.93;;
5135;SDS011;2586;48.710;9.202;2023-02-10T09:40:39;39.13;;;21.63;;
5135;SDS011;2586;48.710;9.202;2023-02-10T09:43:28;40.83;;;21.90;;
5135;SDS011;2586;48.710;9.202;2023-02-10T09:48:57;44.47;;;22.87;;
5135;SDS011;2586;48.710;9.202;2023-02-10T09:54:26;42.47;;;21.83;;
5135;SDS011;2586;48.710;9.202;2023-02-10T09:56:56;41.27;;;23.13;;
5135;SDS011;2586;48.710;9.202;2023-02-10T09:59:26;40.30;;;21.73;;
5135;SDS011;2586;48.710;9.202;2023-02-10T10:01:55;38.77;;;22.13;;
5135;SDS011;2586;48.710;9.202;2023-02-10T10:04:24;46.60;;;23.97;;
5135;SDS011;2586;48.710;9.202;2023-02-10T10:06:54;45.47;;;22.37;;
5135;SDS011;2586;48.710;9.202;2023-02-10T10:09:36;52.33;;;22.93;;
5135;SDS011;2586;48.710;9.202;2023-02-10T10:12:07;52.13;;;22.70;;
5135;SDS011;2586;48.710;9.202;2023-02-10T10:14:37;41.30;;;23.60;;
5135;SDS011;2586;48.710;9.202;2023-02-10T10:19:56;43.20;;;21.30;;
5135;SDS011;2586;48.710;9.202;2023-02-10T10:25:36;56.13;;;22.40;;
5135;SDS011;2586;48.710;9.202;2023-02-10T10:30:58;47.87;;;22.77;;
5135;SDS011;2586;48.710;9.202;2023-02-10T10:33:32;35.33;;;20.70;;
5135;SDS011;2586;48.710;9.202;2023-02-10T10:36:15;40.90;;;22.50;;
5135;SDS011;2586;48.710;9.202;2023-02-10T10:38:48;44.27;;;23.20;;
5135;SDS011;2586;48.710;9.202;2023-02-10T10:41:15;45.80;;;22.87;;
5135;SDS011;2586;48.710;9.202;2023-02-10T10:43:44;41.20;;;22.93;;
5135;SDS011;2586;48.710;9.202;2023-02-10T10:46:14;42.83;;;22.70;;
5135;SDS011;2586;48.710;9.202;2023-02-10T10:48:46;31.33;;;18.93;;
5135;SDS011;2586;48.710;9.202;2023-02-10T10:51:12;37.53;;;21.20;;
5135;SDS011;2586;48.710;9.202;2023-02-10T10:56:30;46.40;;;22.73;;
5135;SDS011;2586;48.710;9.202;2023-02-10T10:59:15;39.73;;;23.60;;
5135;SDS011;2586;48.710;9.202;2023-02-10T11:01:45;52.93;;;22.60;;
5135;SDS011;2586;48.710;9.202;2023-02-10T11:04:13;46.70;;;23.10;;
5135;SDS011;2586;48.710;9.202;2023-02-10T11:06:41;38.77;;;20.93;;
5135;SDS011;2586;48.710;9.202;2023-02-10T11:09:48;37.50;;;22.73;;
5135;SDS011;2586;48.710;9.202;2023-02-10T11:14:41;34.67;;;21.77;;
5135;SDS011;2586;48.710;9.202;2023-02-10T11:17:42;39.37;;;23.23;;
5135;SDS011;2586;48.710;9.202;2023-02-10T11:22:38;46.37;;;22.80;;
5135;SDS011;2586;48.710;9.202;2023-02-10T11:25:24;37.10;;;22.93;;
5135;SDS011;2586;48.710;9.202;2023-02-10T11:27:58;45.60;;;21.97;;
5135;SDS011;2586;48.710;9.202;2023-02-10T11:30:29;36.00;;;20.97;;
5135;SDS011;2586;48.710;9.202;2023-02-10T11:33:02;39.13;;;21.37;;
5135;SDS011;2586;48.710;9.202;2023-02-10T11:35:30;36.40;;;19.50;;
5135;SDS011;2586;48.710;9.202;2023-02-10T11:37:57;33.20;;;20.70;;
5135;SDS011;2586;48.710;9.202;2023-02-10T11:40:27;30.83;;;20.77;;
5135;SDS011;2586;48.710;9.202;2023-02-10T11:43:13;35.10;;;20.83;;
5135;SDS011;2586;48.710;9.202;2023-02-10T11:45:50;34.40;;;21.97;;
5135;SDS011;2586;48.710;9.202;2023-02-10T11:48:19;38.13;;;21.37;;
5135;SDS011;2586;48.710;9.202;2023-02-10T11:50:46;33.50;;;20.37;;
5135;SDS011;2586;48.710;9.202;2023-02-10T11:53:32;29.90;;;20.10;;
5135;SDS011;2586;48.710;9.202;2023-02-10T11:59:46;33.57;;;20.30;;
5135;SDS011;2586;48.710;9.202;2023-02-10T12:02:36;32.80;;;20.93;;
5135;SDS011;2586;48.710;9.202;2023-02-10T12:10:45;40.47;;;20.00;;
5135;SDS011;2586;48.710;9.202;2023-02-10T12:15:48;40.53;;;20.43;;
5135;SDS011;2586;48.710;9.202;2023-02-10T12:24:04;32.80;;;21.03;;
5135;SDS011;2586;48.710;9.202;2023-02-10T12:32:19;32.30;;;19.30;;
5135;SDS011;2586;48.710;9.202;2023-02-10T12:35:19;31.47;;;19.83;;
5135;SDS011;2586;48.710;9.202;2023-02-10T12:43:39;37.93;;;19.80;;
5135;SDS011;2586;48.710;9.202;2023-02-10T12:46:23;28.17;;;18.80;;
5135;SDS011;2586;48.710;9.202;2023-02-10T12:56:59;29.87;;;19.30;;
5135;SDS011;2586;48.710;9.202;2023-02-10T12:59:32;38.77;;;19.33;;
5135;SDS011;2586;48.710;9.202;2023-02-10T13:02:19;32.63;;;20.03;;
5135;SDS011;2586;48.710;9.202;2023-02-10T13:04:51;28.23;;;19.03;;
5135;SDS011;2586;48.710;9.202;2023-02-10T13:10:03;33.37;;;20.90;;
5135;SDS011;2586;48.710;9.202;2023-02-10T13:12:48;34.53;;;20.80;;
5135;SDS011;2586;48.710;9.202;2023-02-10T13:15:20;31.43;;;19.93;;
5135;SDS011;2586;48.710;9.202;2023-02-10T13:18:02;28.97;;;20.60;;
5135;SDS011;2586;48.710;9.202;2023-02-10T13:23:38;33.40;;;21.03;;
5135;SDS011;2586;48.710;9.202;2023-02-10T13:26:14;29.90;;;18.70;;
5135;SDS011;2586;48.710;9.202;2023-02-10T13:31:40;35.90;;;20.60;;
5135;SDS011;2586;48.710;9.202;2023-02-10T13:34:23;32.53;;;19.97;;
5135;SDS011;2586;48.710;9.202;2023-02-10T13:36:57;29.37;;;20.20;;
5135;SDS011;2586;48.710;9.202;2023-02-10T13:39:32;25.60;;;19.17;;
5135;SDS011;2586;48.710;9.202;2023-02-10T13:42:05;29.37;;;19.33;;
5135;SDS011;2586;48.710;9.202;2023-02-10T13:44:34;33.80;;;19.87;;
5135;SDS011;2586;48.710;9.202;2023-02-10T13:49:33;31.50;;;18.77;;
5135;SDS011;2586;48.710;9.202;2023-02-10T13:52:20;39.33;;;21.33;;
5135;SDS011;2586;48.710;9.202;2023-02-10T13:55:23;37.70;;;20.23;;
5135;SDS011;2586;48.710;9.202;2023-02-10T14:00:29;34.80;;;21.50;;
5135;SDS011;2586;48.710;9.202;2023-02-10T14:05:39;42.13;;;20.93;;
5135;SDS011;2586;48.710;9.202;2023-02-10T14:08:25;32.00;;;20.50;;
5135;SDS011;2586;48.710;9.202;2023-02-10T14:11:38;29.83;;;20.33;;
5135;SDS011;2586;48.710;9.202;2023-02-10T14:13:43;33.67;;;20.00;;
5135;SDS011;2586;48.710;9.202;2023-02-10T14:18:46;34.13;;;20.70;;
5135;SDS011;2586;48.710;9.202;2023-02-10T14:21:28;31.63;;;19.23;;
5135;SDS011;2586;48.710;9.202;2023-02-10T14:24:11;32.90;;;21.40;;
5135;SDS011;2586;48.710;9.202;2023-02-10T14:26:41;32.77;;;20.07;;
5135;SDS011;2586;48.710;9.202;2023-02-10T14:29:12;25.90;;;18.37;;
5135;SDS011;2586;48.710;9.202;2023-02-10T14:31:39;36.53;;;20.20;;
5135;SDS011;2586;48.710;9.202;2023-02-10T14:36:50;32.33;;;19.10;;
5135;SDS011;2586;48.710;9.202;2023-02-10T14:39:21;24.63;;;16.00;;
5135;SDS011;2586;48.710;9.202;2023-02-10T14:41:47;29.80;;;18.00;;
5135;SDS011;2586;48.710;9.202;2023-02-10T14:47:21;27.70;;;17.63;;
5135;SDS011;2586;48.710;9.202;2023-02-10T14:50:01;27.60;;;17.10;;
5135;SDS011;2586;48.710;9.202;2023-02-10T14:52:31;31.57;;;18.37;;
5135;SDS011;2586;48.710;9.202;2023-02-10T14:54:59;26.37;;;17.70;;
5135;SDS011;2586;48.710;9.202;2023-02-10T14:57:25;24.70;;;16.60;;
5135;SDS011;2586;48.710;9.202;2023-02-10T14:59:52;29.50;;;18.57;;
5135;SDS011;2586;48.710;9.202;2023-02-10T15:02:26;34.70;;;18.70;;
5135;SDS011;2586;48.710;9.202;2023-02-10T15:04:54;28.30;;;18.13;;
5135;SDS011;2586;48.710;9.202;2023-02-10T15:07:22;43.37;;;16.30;;
5135;SDS011;2586;48.710;9.202;2023-02-10T15:09:58;28.27;;;18.03;;
5135;SDS011;2586;48.710;9.202;2023-02-10T15:12:45;27.23;;;17.17;;
5135;SDS011;2586;48.710;9.202;2023-02-10T15:22:45;34.50;;;18.47;;
5135;SDS011;2586;48.710;9.202;2023-02-10T15:30:42;36.53;;;17.43;;
5135;SDS011;2586;48.710;9.202;2023-02-10T15:33:24;32.60;;;17.67;;
5135;SDS011;2586;48.710;9.202;2023-02-10T15:38:45;30.97;;;17.70;;
5135;SDS011;2586;48.710;9.202;2023-02-10T15:46:54;30.23;;;15.90;;
5135;SDS011;2586;48.710;9.202;2023-02-10T15:49:39;27.63;;;16.73;;
5135;SDS011;2586;48.710;9.202;2023-02-10T15:52:09;30.30;;;16.10;;
5135;SDS011;2586;48.710;9.202;2023-02-10T15:54:38;26.47;;;16.53;;
5135;SDS011;2586;48.710;9.202;2023-02-10T15:57:05;29.30;;;16.00;;
5135;SDS011;2586;48.710;9.202;2023-02-10T15:59:31;29.10;;;16.93;;
5135;SDS011;2586;48.710;9.202;2023-02-10T16:01:58;26.77;;;16.10;;
5135;SDS011;2586;48.710;9.202;2023-02-10T16:04:33;42.23;;;16.73;;
5135;SDS011;2586;48.710;9.202;2023-02-10T16:07:00;36.33;;;17.37;;
5135;SDS011;2586;48.710;9.202;2023-02-10T16:09:27;38.73;;;17.30;;
5135;SDS011;2586;48.710;9.202;2023-02-10T16:11:55;30.40;;;16.30;;
5135;SDS011;2586;48.710;9.202;2023-02-10T16:14:21;33.37;;;18.37;;
5135;SDS011;2586;48.710;9.202;2023-02-10T16:16:49;34.10;;;17.17;;
5135;SDS011;2586;48.710;9.202;2023-02-10T16:19:21;29.40;;;18.53;;
5135;SDS011;2586;48.710;9.202;2023-02-10T16:21:48;30.93;;;16.30;;
5135;SDS011;2586;48.710;9.202;2023-02-10T16:24:16;27.50;;;14.43;;
5135;SDS011;2586;48.710;9.202;2023-02-10T16:26:44;31.83;;;16.00;;
5135;SDS011;2586;48.710;9.202;2023-02-10T16:29:21;24.10;;;14.77;;
5135;SDS011;2586;48.710;9.202;2023-02-10T16:31:48;47.20;;;18.00;;
5135;SDS011;2586;48.710;9.202;2023-02-10T16:34:14;34.10;;;17.10;;
5135;SDS011;2586;48.710;9.202;2023-02-10T16:36:40;31.23;;;15.90;;
5135;SDS011;2586;48.710;9.202;2023-02-10T16:39:09;43.43;;;19.40;;
5135;SDS011;2586;48.710;9.202;2023-02-10T16:41:41;68.73;;;17.63;;
5135;SDS011;2586;48.710;9.202;2023-02-10T16:44:07;35.13;;;17.73;;
5135;SDS011;2586;48.710;9.202;2023-02-10T16:46:32;44.80;;;15.60;;
5135;SDS011;2586;48.710;9.202;2023-02-10T16:48:58;42.57;;;16.97;;
5135;SDS011;2586;48.710;9.202;2023-02-10T16:51:23;39.53;;;18.70;;
5135;SDS011;2586;48.710;9.202;2023-02-10T16:53:49;42.30;;;19.10;;
5135;SDS011;2586;48.710;9.202;2023-02-10T16:56:19;34.40;;;16.60;;
5135;SDS011;2586;48.710;9.202;2023-02-10T16:58:45;34.10;;;16.33;;
5135;SDS011;2586;48.710;9.202;2023-02-10T17:01:11;42.10;;;17.30;;
5135;SDS011;2586;48.710;9.202;2023-02-10T17:03:37;33.90;;;17.17;;
5135;SDS011;2586;48.710;9.202;2023-02-10T17:06:03;31.33;;;16.70;;
5135;SDS011;2586;48.710;9.202;2023-02-10T17:08:29;38.07;;;17.17;;
5135;SDS011;2586;48.710;9.202;2023-02-10T17:10:55;36.37;;;18.67;;